Airfield :







YOU CAN JOIN US ON...

 
LOGIN :

Register | Disclaimer

   EN    FR    IT 

 









Legend :    VFR   Marginal VFR   IFR   Intensive IFR   Very Intensive IFR
Visi :
Ceiling :
>= 8 km
>= 3000ft
5 to 8 km
1000 to 3000 ft
1500m to 5 km
500 to 1000 ft
800 to 1500m
200 to 500 ft
< 800m
< 200 ft
Symbols :   Thunderstorms  Fog  Heavy snow  Heavy precipitations  Wind > 20 kt






- Airport Elevation : 241 ft
- IATA code : CEF


KCEF - Westover ARB/Metropolitan

CURRENT METAR :
  • 281356Z 20006KT 10SM OVC011 22/18 A3019 RMK AO2A SLP228 T02170181

EXPIRED METARs :
  • 281256Z 18007KT 10SM OVC010 21/18 A3020 RMK AO2A SLP232 T02060176
  • 281211Z AUTO 15006KT 10SM BKN010 OVC030 20/17 A3020 RMK AO2 CIG 010V030 SLP232
  • 281156Z AUTO 18005KT 10SM FEW009 FEW014 OVC030 20/17 A3020 RMK AO2 SLP232 60000 T02000174 10200 20174 50001
  • 281122Z AUTO 18004KT 10SM FEW009 OVC014 19/17 A3020 RMK AO2 SLP232

TAF TAF KCEF
Valid from the 28 at 13:00 until the 29 at 19:00 UTC


281300Z 2813/2919 20009KT 9999 BKN010 OVC030 510204 QNH3019INS
TEMPO 2813/2817 OVC008
BECMG 2816/2817 19010G18KT 9999 BKN020 BKN180 510204 QNH3011INS
BECMG 2821/2822 19010G18KT 9999 BKN010 OVC025 510204 QNH3009INS
TEMPO 2822/2902 21012G20KT 8000 -RA BR
BECMG 2901/2902 18009KT 8000 -RA BR OVC010 510206 QNH3005INS
BECMG 2912/2913 20010G15KT 8000 -RA OVC010 510204 QNH2995INS
TEMPO 2917/2919 20015G25KT -TSRA BKN010CB TX26/2820Z TN19/2910Z
KZBW FIR / North America



MET'MAP, your aeronautical weather chart ! - Copyright ORBIFLY December 2007 - Disclaimer

ORBIFLY MET'MAP TEAM :

Programming & Development : Alexandra Zaïnal
Concept & original design : Baudouin d'Aumeries
Assistance for programming : Marc-Olivier Méhu
Technical & hardware support : Manuel Goepfert

Contact : metmap@orbifly.com




SOURCES & CREDITS :

   NOAA